This is the latest recevied weather packets stored in our database for station/object KC0FGX-1. If no packets are shown the sender has not sent any weather packets the latest 10 day(s).
| Time | Temp. | Humidity | Pressure | Rain* | Wind** | Luminosity | Snow |
|---|---|---|---|---|---|---|---|
| 1777728191 | 7.78° C | 80% | 1019.2 hPa | 0 mm | - | - | - |
| 1777727190 | 6.11° C | 85% | 1018.9 hPa | 0 mm | - | - | - |
| 1777723190 | 3.89° C | 92% | 1018.3 hPa | 0 mm | - | - | - |
| 1777722190 | 2.78° C | 92% | 1018.1 hPa | 0 mm | - | - | - |
| 1777721190 | 2.78° C | 91% | 1018 hPa | 0 mm | - | - | - |
| 1777720190 | 2.78° C | 91% | 1017.9 hPa | 0 mm | - | - | - |
| 1777719190 | 3.33° C | 90% | 1017.9 hPa | 0 mm | - | - | - |
| 1777718190 | 3.89° C | 90% | 1018 hPa | 0 mm | - | - | - |
| 1777717190 | 3.89° C | 89% | 1017.9 hPa | 0 mm | - | - | - |
| 1777716190 | 3.89° C | 90% | 1017.7 hPa | 0 mm | - | - | - |
| 1777715190 | 3.33° C | 91% | 1017.7 hPa | 0 mm | - | - | - |
| 1777714190 | 3.89° C | 89% | 1017.6 hPa | 0 mm | - | - | - |
| 1777713190 | 3.89° C | 90% | 1017.5 hPa | 0 mm | - | - | - |
| 1777712190 | 4.44° C | 88% | 1017.4 hPa | 0 mm | - | - | - |
| 1777711190 | 4.44° C | 89% | 1017.4 hPa | 0 mm | - | - | - |
| 1777710190 | 4.44° C | 91% | 1017.2 hPa | 0 mm | - | - | - |
| 1777709190 | 4.44° C | 89% | 1017.2 hPa | 0 mm | - | - | - |
| 1777708191 | 5° C | 89% | 1017.1 hPa | 0 mm | - | - | - |
| 1777707190 | 5° C | 89% | 1017 hPa | 0 mm | - | - | - |
| 1777706190 | 5.56° C | 88% | 1017 hPa | 0 mm | - | - | - |
| 1777705191 | 5.56° C | 86% | 1017.1 hPa | 0 mm | - | - | - |
| 1777704190 | 6.11° C | 86% | 1017.2 hPa | 0 mm | - | - | - |
| 1777703190 | 6.11° C | 85% | 1017.2 hPa | 0 mm | - | - | - |
| 1777702190 | 6.11° C | 86% | 1017.3 hPa | 0 mm | - | - | - |
| 1777701191 | 6.11° C | 85% | 1017.2 hPa | 0 mm | - | - | - |
* Rain latest hour (hover to see other rain measurements)
** Current wind speed in m/s (hover to see current wind gust speed)